Time;durP1;ratioP1;P1;durP2;ratioP2;P2;SDS_P1;SDS_P2;PMS_P1;PMS_P2;Temp;Humidity;BMP_temperature;BMP_pressure;BME280_temperature;BME280_humidity;BME280_pressure;Samples;Min_cycle;Max_cycle;Signal;HPM_P1;HPM_P2
2021/05/14 00:03:48;;;;;;;26.52;14.70;;;;;;;;;;10256030;28;20041;-67
2021/05/14 00:08:44;;;;;;;23.15;14.15;;;;;;;;;;10263124;28;20103;-65
2021/05/14 00:13:40;;;;;;;25.02;13.23;;;;;;;;;;10263145;28;20037;-65
2021/05/14 00:18:37;;;;;;;22.33;11.48;;;;;;;;;;10266957;28;20079;-68
2021/05/14 00:23:33;;;;;;;26.33;12.82;;;;;;;;;;10261670;28;20060;-68
2021/05/14 00:28:29;;;;;;;18.20;11.82;;;;;;;;;;10258185;28;20048;-68
2021/05/14 00:33:26;;;;;;;18.30;10.73;;;;;;;;;;10266520;28;20083;-67
2021/05/14 00:38:22;;;;;;;23.08;11.45;;;;;;;;;;10252122;28;20045;-68
2021/05/14 00:43:18;;;;;;;24.63;10.13;;;;;;;;;;10260977;28;20057;-67
2021/05/14 00:48:15;;;;;;;20.60;9.65;;;;;;;;;;10263403;28;20087;-66
2021/05/14 00:53:11;;;;;;;22.00;9.10;;;;;;;;;;10245844;28;20069;-66
2021/05/14 00:58:07;;;;;;;22.15;9.43;;;;;;;;;;10263908;28;20053;-66
2021/05/14 01:03:04;;;;;;;16.23;8.80;;;;;;;;;;10248791;28;20112;-66
2021/05/14 01:08:00;;;;;;;21.30;9.82;;;;;;;;;;10255827;28;20469;-66
2021/05/14 01:12:57;;;;;;;19.23;9.48;;;;;;;;;;10254390;28;20102;-66
2021/05/14 01:17:53;;;;;;;21.48;10.52;;;;;;;;;;10263080;28;20115;-65
2021/05/14 01:22:49;;;;;;;20.58;10.20;;;;;;;;;;10250638;28;20350;-66
2021/05/14 01:27:46;;;;;;;21.50;10.32;;;;;;;;;;10263523;28;20036;-67
2021/05/14 01:32:42;;;;;;;21.25;11.48;;;;;;;;;;10280010;28;20044;-65
2021/05/14 01:37:39;;;;;;;23.58;10.65;;;;;;;;;;10260296;28;20154;-68
2021/05/14 01:42:41;;;;;;;25.02;12.07;;;;;;;;;;10254065;28;20047;-67
2021/05/14 01:47:37;;;;;;;27.73;12.10;;;;;;;;;;10258610;28;20086;-66
2021/05/14 01:52:34;;;;;;;21.98;10.75;;;;;;;;;;10262865;28;20087;-67
2021/05/14 01:57:31;;;;;;;24.85;11.93;;;;;;;;;;10262755;28;20045;-67
2021/05/14 02:02:27;;;;;;;22.58;11.27;;;;;;;;;;10266801;28;20514;-66
2021/05/14 02:07:23;;;;;;;28.63;12.55;;;;;;;;;;10262712;28;20107;-68
2021/05/14 02:12:20;;;;;;;22.75;10.57;;;;;;;;;;10265332;28;20580;-68
2021/05/14 02:17:16;;;;;;;29.75;12.20;;;;;;;;;;10267962;28;20052;-68
2021/05/14 02:22:12;;;;;;;27.75;11.65;;;;;;;;;;10262107;28;20076;-68
2021/05/14 02:27:09;;;;;;;23.55;11.13;;;;;;;;;;10270547;28;20037;-69
2021/05/14 02:32:05;;;;;;;27.83;11.82;;;;;;;;;;10265430;28;20115;-69
2021/05/14 02:37:04;;;;;;;28.73;12.93;;;;;;;;;;10265770;28;20047;-69
2021/05/14 02:42:01;;;;;;;23.70;13.57;;;;;;;;;;10268171;28;20045;-65
2021/05/14 02:46:57;;;;;;;22.70;12.45;;;;;;;;;;10266696;28;20036;-68
2021/05/14 02:51:53;;;;;;;27.02;14.55;;;;;;;;;;10268181;28;20041;-68
2021/05/14 02:56:50;;;;;;;31.10;14.15;;;;;;;;;;10263545;28;20430;-69
2021/05/14 03:01:47;;;;;;;28.95;15.63;;;;;;;;;;10259353;28;20083;-68
2021/05/14 03:06:44;;;;;;;32.30;16.27;;;;;;;;;;10256894;28;20095;-69
2021/05/14 03:11:40;;;;;;;34.35;17.38;;;;;;;;;;10271197;28;20099;-69
2021/05/14 03:16:36;;;;;;;30.23;17.00;;;;;;;;;;10254615;28;20495;-70
2021/05/14 03:21:33;;;;;;;30.33;16.40;;;;;;;;;;10263897;28;20464;-70
2021/05/14 03:26:29;;;;;;;41.72;17.67;;;;;;;;;;10267221;28;20414;-68
2021/05/14 03:31:26;;;;;;;35.45;17.92;;;;;;;;;;10252194;28;20091;-68
2021/05/14 03:36:22;;;;;;;34.88;18.38;;;;;;;;;;10252467;28;20052;-68
2021/05/14 03:46:27;;;;;;;41.53;17.73;;;;;;;;;;10257147;28;20576;-68
2021/05/14 03:51:24;;;;;;;39.60;17.02;;;;;;;;;;10258095;28;20049;-66
2021/05/14 03:56:20;;;;;;;35.40;17.42;;;;;;;;;;10256881;28;20076;-69
2021/05/14 04:01:17;;;;;;;37.55;17.13;;;;;;;;;;10255270;28;20411;-68
2021/05/14 04:06:14;;;;;;;40.10;17.30;;;;;;;;;;10258955;28;20384;-68
2021/05/14 04:16:35;;;;;;;34.42;16.60;;;;;;;;;;10252016;28;20041;-69
2021/05/14 04:21:32;;;;;;;36.42;15.48;;;;;;;;;;10269694;28;20533;-68
2021/05/14 04:26:28;;;;;;;27.75;14.27;;;;;;;;;;10260258;28;20094;-68
2021/05/14 04:31:26;;;;;;;28.50;13.93;;;;;;;;;;10259440;28;20454;-69
2021/05/14 04:36:22;;;;;;;31.25;13.70;;;;;;;;;;10257642;28;20053;-69
2021/05/14 04:41:19;;;;;;;24.48;12.30;;;;;;;;;;10251161;28;20495;-69
2021/05/14 04:46:15;;;;;;;26.77;13.15;;;;;;;;;;10250891;28;20041;-68
2021/05/14 04:51:26;;;;;;;28.33;11.13;;;;;;;;;;10256843;28;20107;-66
2021/05/14 04:56:22;;;;;;;30.00;11.07;;;;;;;;;;10265809;28;20063;-68
2021/05/14 05:01:19;;;;;;;32.40;10.85;;;;;;;;;;10259967;28;20056;-66
2021/05/14 05:06:16;;;;;;;18.98;9.77;;;;;;;;;;10238389;28;20136;-70
2021/05/14 05:11:13;;;;;;;26.15;10.25;;;;;;;;;;10265201;28;20510;-70
2021/05/14 05:16:09;;;;;;;28.33;9.95;;;;;;;;;;10262228;28;20051;-68
2021/05/14 05:21:06;;;;;;;22.33;8.60;;;;;;;;;;10251687;28;20104;-70
2021/05/14 05:26:03;;;;;;;24.10;7.95;;;;;;;;;;10253339;28;20047;-70
2021/05/14 05:30:59;;;;;;;20.73;7.68;;;;;;;;;;10256669;28;20045;-71
2021/05/14 05:35:56;;;;;;;25.27;8.27;;;;;;;;;;10248177;28;20099;-70
2021/05/14 05:40:52;;;;;;;24.27;9.88;;;;;;;;;;10248361;28;20049;-71
2021/05/14 05:45:49;;;;;;;26.13;8.70;;;;;;;;;;10257173;28;20064;-71
2021/05/14 05:50:46;;;;;;;17.48;6.53;;;;;;;;;;10242758;28;20411;-73
2021/05/14 05:55:42;;;;;;;21.33;8.32;;;;;;;;;;10253047;28;20079;-71
2021/05/14 06:00:39;;;;;;;31.48;10.05;;;;;;;;;;10255744;28;20052;-72
2021/05/14 06:05:35;;;;;;;22.65;7.07;;;;;;;;;;10249202;28;20052;-71
2021/05/14 06:10:32;;;;;;;21.42;8.23;;;;;;;;;;10261540;28;20946;-72
2021/05/14 06:15:28;;;;;;;22.20;8.18;;;;;;;;;;10255366;28;20107;-71
2021/05/14 06:20:27;;;;;;;35.70;10.18;;;;;;;;;;10255504;28;20519;-69
2021/05/14 06:25:24;;;;;;;21.13;7.05;;;;;;;;;;10255608;28;20067;-70
2021/05/14 06:30:20;;;;;;;24.45;8.15;;;;;;;;;;10250782;28;20053;-71
2021/05/14 06:35:17;;;;;;;21.08;6.47;;;;;;;;;;10255538;28;20048;-71
2021/05/14 06:40:13;;;;;;;21.13;7.40;;;;;;;;;;10258156;28;20049;-71
2021/05/14 06:45:10;;;;;;;21.15;7.20;;;;;;;;;;10250032;28;20045;-71
2021/05/14 06:50:07;;;;;;;19.77;7.07;;;;;;;;;;10255623;28;20041;-75
2021/05/14 06:55:04;;;;;;;26.38;6.47;;;;;;;;;;10265109;28;20083;-69
2021/05/14 07:00:01;;;;;;;20.45;6.10;;;;;;;;;;10266230;28;20045;-69
2021/05/14 07:04:57;;;;;;;21.65;6.28;;;;;;;;;;10257365;28;20734;-69
2021/05/14 07:09:54;;;;;;;20.05;7.05;;;;;;;;;;10254551;28;20471;-69
2021/05/14 07:14:50;;;;;;;18.40;6.95;;;;;;;;;;10256706;28;20041;-69
2021/05/14 07:19:46;;;;;;;21.92;7.32;;;;;;;;;;10248041;28;20041;-69
2021/05/14 07:24:43;;;;;;;19.45;6.20;;;;;;;;;;10254762;28;20123;-69
2021/05/14 07:29:40;;;;;;;26.25;7.93;;;;;;;;;;10255533;28;20499;-69
2021/05/14 07:34:36;;;;;;;30.80;8.98;;;;;;;;;;10255508;28;20118;-69
2021/05/14 07:39:36;;;;;;;25.90;7.97;;;;;;;;;;10252639;28;20107;-69
2021/05/14 07:44:33;;;;;;;21.42;7.47;;;;;;;;;;10249781;28;20048;-68
2021/05/14 07:49:29;;;;;;;25.90;7.90;;;;;;;;;;10253689;28;20049;-67
2021/05/14 07:54:26;;;;;;;21.92;7.60;;;;;;;;;;10242709;28;20041;-69
2021/05/14 07:59:22;;;;;;;21.98;5.45;;;;;;;;;;10253970;28;20147;-68
2021/05/14 08:04:18;;;;;;;20.45;6.53;;;;;;;;;;10251130;28;20095;-69
2021/05/14 08:09:21;;;;;;;19.17;5.93;;;;;;;;;;10255145;28;20445;-68
2021/05/14 08:14:18;;;;;;;20.65;4.65;;;;;;;;;;10250108;28;20037;-69
2021/05/14 08:19:14;;;;;;;23.90;4.57;;;;;;;;;;10247638;28;20050;-68
2021/05/14 08:24:11;;;;;;;24.02;4.90;;;;;;;;;;10257839;28;20110;-67
2021/05/14 08:29:08;;;;;;;20.08;4.97;;;;;;;;;;10254679;28;20044;-68
2021/05/14 08:34:05;;;;;;;22.83;5.88;;;;;;;;;;10246727;28;20040;-67
2021/05/14 08:39:02;;;;;;;14.60;5.13;;;;;;;;;;10244278;28;20045;-67
2021/05/14 08:43:59;;;;;;;18.42;5.75;;;;;;;;;;10253661;28;20075;-67
2021/05/14 08:48:56;;;;;;;25.83;5.70;;;;;;;;;;10249973;28;20087;-67
2021/05/14 08:53:52;;;;;;;21.75;5.80;;;;;;;;;;10249756;28;20041;-68
2021/05/14 08:58:49;;;;;;;23.85;6.03;;;;;;;;;;10258977;28;20557;-68
2021/05/14 09:04:16;;;;;;;21.30;6.40;;;;;;;;;;10249677;28;20365;-68
2021/05/14 09:09:14;;;;;;;22.77;6.28;;;;;;;;;;10253108;28;20691;-65
2021/05/14 09:14:29;;;;;;;22.02;6.60;;;;;;;;;;10256980;28;20037;-65
2021/05/14 09:19:36;;;;;;;22.17;6.63;;;;;;;;;;10239908;28;20108;-65
2021/05/14 09:24:32;;;;;;;27.13;6.80;;;;;;;;;;10252548;28;20131;-65
2021/05/14 09:29:36;;;;;;;25.20;8.50;;;;;;;;;;10252183;28;20132;-65
2021/05/14 09:34:32;;;;;;;19.42;7.28;;;;;;;;;;10244242;28;20056;-65
2021/05/14 09:39:33;;;;;;;29.17;7.95;;;;;;;;;;10240207;28;20048;-65
2021/05/14 09:44:29;;;;;;;23.02;7.75;;;;;;;;;;10240632;28;20139;-65
2021/05/14 09:49:29;;;;;;;19.30;7.50;;;;;;;;;;10248736;28;20114;-65
2021/05/14 09:54:42;;;;;;;20.73;8.73;;;;;;;;;;10248238;28;20049;-66
2021/05/14 09:59:38;;;;;;;20.13;8.25;;;;;;;;;;10249055;28;20037;-65
2021/05/14 10:04:36;;;;;;;20.73;7.43;;;;;;;;;;10247216;28;20044;-66
2021/05/14 10:09:33;;;;;;;21.90;8.30;;;;;;;;;;10252368;28;20041;-65
2021/05/14 10:14:29;;;;;;;23.85;8.23;;;;;;;;;;10246850;28;20061;-65
2021/05/14 10:19:27;;;;;;;18.65;8.07;;;;;;;;;;10248013;28;20638;-65
2021/05/14 10:24:39;;;;;;;26.40;9.02;;;;;;;;;;10249056;28;20226;-65
2021/05/14 10:29:41;;;;;;;25.48;8.98;;;;;;;;;;10256228;28;20110;-64
2021/05/14 10:34:37;;;;;;;28.33;9.05;;;;;;;;;;10258939;28;20064;-64
2021/05/14 10:39:35;;;;;;;16.98;7.65;;;;;;;;;;10260539;28;20518;-65
2021/05/14 10:44:52;;;;;;;22.65;7.65;;;;;;;;;;10255368;28;20037;-64
2021/05/14 10:49:53;;;;;;;23.65;7.13;;;;;;;;;;10256760;28;20122;-65
2021/05/14 10:54:49;;;;;;;16.13;7.95;;;;;;;;;;10255409;28;20049;-63
2021/05/14 10:59:46;;;;;;;19.17;7.35;;;;;;;;;;10259710;28;20462;-64
2021/05/14 11:04:43;;;;;;;23.50;6.95;;;;;;;;;;10250367;28;20108;-64
2021/05/14 11:09:39;;;;;;;20.58;7.38;;;;;;;;;;10260157;28;20095;-65
2021/05/14 11:14:43;;;;;;;24.67;8.15;;;;;;;;;;10256047;28;20104;-64
2021/05/14 11:19:44;;;;;;;22.33;8.18;;;;;;;;;;10266538;28;20045;-64
2021/05/14 11:24:43;;;;;;;19.48;7.43;;;;;;;;;;10248428;28;20045;-64
2021/05/14 11:29:44;;;;;;;21.50;8.40;;;;;;;;;;10242595;28;20080;-63
2021/05/14 11:34:50;;;;;;;26.10;8.65;;;;;;;;;;10250523;28;20037;-64
2021/05/14 11:39:47;;;;;;;22.38;8.27;;;;;;;;;;10259429;28;20077;-65
2021/05/14 11:44:53;;;;;;;26.38;7.60;;;;;;;;;;10249570;28;20099;-64
2021/05/14 11:49:50;;;;;;;19.92;7.80;;;;;;;;;;10254670;28;20511;-66
2021/05/14 11:54:58;;;;;;;22.23;9.93;;;;;;;;;;10255136;28;20033;-64
2021/05/14 11:59:55;;;;;;;18.63;8.30;;;;;;;;;;10254421;28;20085;-64
2021/05/14 12:04:51;;;;;;;23.55;9.15;;;;;;;;;;10248295;28;20072;-64
2021/05/14 12:09:55;;;;;;;20.15;9.32;;;;;;;;;;10249097;28;20041;-64
2021/05/14 12:14:51;;;;;;;;;;;;;;;;;;10253404;28;20037;-68
2021/05/14 12:19:48;;;;;;;24.00;10.20;;;;;;;;;;10251407;28;20028;-66
2021/05/14 12:24:44;;;;;;;18.77;10.18;;;;;;;;;;10260760;28;20078;-67
2021/05/14 12:29:41;;;;;;;19.17;11.00;;;;;;;;;;10250638;28;20041;-67
2021/05/14 12:34:37;;;;;;;18.20;11.07;;;;;;;;;;10252149;28;20044;-66
2021/05/14 12:39:46;;;;;;;19.48;10.07;;;;;;;;;;10252418;28;20071;-66
2021/05/14 12:44:47;;;;;;;16.52;11.05;;;;;;;;;;10256087;28;20091;-66
2021/05/14 12:49:48;;;;;;;20.95;11.35;;;;;;;;;;10254208;28;20831;-66
2021/05/14 12:54:56;;;;;;;22.73;12.95;;;;;;;;;;10258078;28;20091;-67
2021/05/14 12:59:54;;;;;;;19.27;11.70;;;;;;;;;;10256965;28;20465;-71
2021/05/14 13:05:07;;;;;;;24.30;11.80;;;;;;;;;;10257133;28;20510;-66
2021/05/14 13:10:06;;;;;;;22.67;11.80;;;;;;;;;;10250396;28;20057;-66
2021/05/14 13:15:02;;;;;;;20.40;12.63;;;;;;;;;;10238688;28;20045;-66
2021/05/14 13:19:59;;;;;;;20.90;12.15;;;;;;;;;;10255647;28;20056;-67
2021/05/14 13:24:55;;;;;;;22.65;12.48;;;;;;;;;;10254859;28;20041;-66
2021/05/14 13:29:52;;;;;;;21.65;13.48;;;;;;;;;;10248785;28;20131;-66
2021/05/14 13:34:48;;;;;;;24.45;13.48;;;;;;;;;;10254556;28;20037;-67
2021/05/14 13:39:44;;;;;;;26.70;13.73;;;;;;;;;;10249989;28;20542;-66
2021/05/14 13:44:41;;;;;;;30.35;14.18;;;;;;;;;;10240512;28;20891;-66
2021/05/14 13:49:37;;;;;;;23.25;13.90;;;;;;;;;;10250407;28;20436;-66
2021/05/14 13:54:34;;;;;;;27.08;14.10;;;;;;;;;;10249157;28;20465;-67
2021/05/14 13:59:31;;;;;;;23.80;14.25;;;;;;;;;;10253960;28;20053;-66
2021/05/14 14:04:27;;;;;;;23.15;11.23;;;;;;;;;;10252240;28;20820;-67
2021/05/14 14:09:23;;;;;;;19.60;12.25;;;;;;;;;;10266569;28;20118;-66
2021/05/14 14:14:20;;;;;;;22.48;12.32;;;;;;;;;;10255906;28;20449;-66
2021/05/14 14:19:17;;;;;;;23.83;12.82;;;;;;;;;;10261355;28;20048;-66
2021/05/14 14:24:13;;;;;;;24.15;12.85;;;;;;;;;;10256445;28;20462;-66
2021/05/14 14:29:10;;;;;;;22.67;12.35;;;;;;;;;;10251986;28;20073;-66
2021/05/14 14:34:06;;;;;;;25.48;13.90;;;;;;;;;;10259316;28;20106;-67
2021/05/14 14:39:03;;;;;;;27.52;15.48;;;;;;;;;;10260594;28;20049;-68
2021/05/14 14:44:03;;;;;;;22.20;12.75;;;;;;;;;;10254001;28;20148;-68
2021/05/14 14:48:59;;;;;;;28.05;17.15;;;;;;;;;;10261042;28;20417;-68
2021/05/14 14:53:56;;;;;;;26.33;13.80;;;;;;;;;;10266606;28;20106;-67
2021/05/14 14:58:53;;;;;;;23.65;12.02;;;;;;;;;;10262128;28;20049;-67
2021/05/14 15:03:49;;;;;;;23.02;12.05;;;;;;;;;;10267516;28;20041;-67
2021/05/14 15:08:46;;;;;;;19.02;11.43;;;;;;;;;;10261837;28;20064;-67
2021/05/14 15:13:42;;;;;;;22.65;12.55;;;;;;;;;;10260238;28;20095;-68
2021/05/14 15:18:40;;;;;;;23.45;13.23;;;;;;;;;;10256820;28;20098;-67
2021/05/14 15:23:36;;;;;;;22.02;11.82;;;;;;;;;;10262869;28;20605;-68
2021/05/14 15:28:33;;;;;;;26.25;12.77;;;;;;;;;;10260158;28;20044;-68
2021/05/14 15:33:29;;;;;;;19.75;11.38;;;;;;;;;;10249489;28;20052;-68
2021/05/14 15:38:25;;;;;;;22.90;11.98;;;;;;;;;;10258197;28;20468;-69
2021/05/14 15:43:22;;;;;;;23.60;12.02;;;;;;;;;;10263639;28;20053;-69
2021/05/14 15:48:19;;;;;;;23.00;11.88;;;;;;;;;;10256828;28;20098;-69
2021/05/14 15:53:15;;;;;;;23.17;13.13;;;;;;;;;;10246901;28;20120;-68
2021/05/14 15:58:12;;;;;;;26.15;12.70;;;;;;;;;;10255268;28;20048;-69
2021/05/14 16:03:08;;;;;;;23.92;13.32;;;;;;;;;;10258201;28;20042;-68
2021/05/14 16:08:04;;;;;;;23.88;13.82;;;;;;;;;;10251701;28;20049;-67
2021/05/14 16:13:01;;;;;;;25.95;13.32;;;;;;;;;;10252167;28;20084;-67
2021/05/14 16:18:03;;;;;;;20.55;13.43;;;;;;;;;;10247304;28;20068;-67
2021/05/14 16:23:02;;;;;;;24.20;13.25;;;;;;;;;;10257914;28;20048;-67
2021/05/14 16:27:58;;;;;;;20.30;12.95;;;;;;;;;;10257190;28;20064;-67
2021/05/14 16:32:55;;;;;;;21.60;12.27;;;;;;;;;;10250859;28;20470;-67
2021/05/14 16:37:51;;;;;;;20.88;12.73;;;;;;;;;;10252932;28;20049;-66
2021/05/14 16:42:48;;;;;;;18.50;12.73;;;;;;;;;;10242319;28;20048;-68
2021/05/14 16:47:48;;;;;;;21.17;11.85;;;;;;;;;;10260879;28;20045;-68
2021/05/14 16:52:45;;;;;;;18.67;12.65;;;;;;;;;;10246597;28;20650;-67
2021/05/14 16:57:42;;;;;;;21.63;13.18;;;;;;;;;;10240548;28;20065;-67
2021/05/14 17:02:41;;;;;;;21.63;13.68;;;;;;;;;;10233393;28;20052;-67
2021/05/14 17:07:38;;;;;;;27.70;14.82;;;;;;;;;;10244723;28;20064;-67
2021/05/14 17:12:34;;;;;;;27.30;16.13;;;;;;;;;;10244145;28;20041;-67
2021/05/14 17:17:31;;;;;;;22.20;13.57;;;;;;;;;;10242763;28;20053;-66
2021/05/14 17:22:28;;;;;;;18.88;12.80;;;;;;;;;;10241268;28;20774;-67
2021/05/14 17:27:24;;;;;;;26.08;14.23;;;;;;;;;;10238046;28;20049;-66
2021/05/14 17:32:20;;;;;;;22.10;12.90;;;;;;;;;;10239483;28;20053;-67
2021/05/14 17:37:17;;;;;;;19.90;12.50;;;;;;;;;;10241651;28;20124;-67
2021/05/14 17:42:14;;;;;;;23.67;14.20;;;;;;;;;;10238972;28;20713;-68
2021/05/14 17:47:12;;;;;;;21.80;13.82;;;;;;;;;;10240234;28;20069;-67
2021/05/14 17:52:09;;;;;;;22.40;13.60;;;;;;;;;;10245001;28;20206;-65
2021/05/14 17:57:05;;;;;;;23.65;13.32;;;;;;;;;;10243165;28;20060;-65
2021/05/14 18:02:03;;;;;;;20.05;12.00;;;;;;;;;;10238387;28;20510;-66
2021/05/14 18:06:59;;;;;;;19.98;11.63;;;;;;;;;;10237239;28;20042;-67
2021/05/14 18:11:56;;;;;;;24.10;13.65;;;;;;;;;;10240764;28;20083;-67
2021/05/14 18:16:53;;;;;;;22.08;12.40;;;;;;;;;;10252208;28;20037;-67
2021/05/14 18:21:50;;;;;;;18.17;12.35;;;;;;;;;;10253095;28;20132;-68
2021/05/14 18:26:46;;;;;;;20.45;12.02;;;;;;;;;;10243365;28;20049;-67
2021/05/14 18:31:43;;;;;;;20.92;11.63;;;;;;;;;;10239376;28;20053;-67
2021/05/14 18:36:39;;;;;;;18.40;11.93;;;;;;;;;;10248884;28;20057;-68
2021/05/14 18:41:35;;;;;;;23.77;12.98;;;;;;;;;;10245158;28;20045;-67
2021/05/14 18:46:32;;;;;;;20.45;12.50;;;;;;;;;;10250990;28;20060;-67
2021/05/14 18:51:28;;;;;;;26.35;14.02;;;;;;;;;;10243609;28;20099;-67
2021/05/14 18:56:25;;;;;;;20.58;11.80;;;;;;;;;;10244223;28;20111;-67
2021/05/14 19:01:22;;;;;;;23.00;12.65;;;;;;;;;;10267211;28;20049;-67
2021/05/14 19:06:18;;;;;;;20.42;12.13;;;;;;;;;;10249691;28;20137;-67
2021/05/14 19:11:16;;;;;;;20.92;13.75;;;;;;;;;;10253132;28;20532;-67
2021/05/14 19:16:12;;;;;;;23.15;14.35;;;;;;;;;;10248084;28;20052;-67
2021/05/14 19:21:09;;;;;;;20.50;12.95;;;;;;;;;;10251574;28;20804;-67
2021/05/14 19:51:53;;;;;;;28.15;15.50;;;;;;;;;;10254031;28;20091;-68
2021/05/14 19:56:52;;;;;;;26.73;15.57;;;;;;;;;;10255498;28;20107;-68
2021/05/14 20:01:49;;;;;;;24.20;15.50;;;;;;;;;;10257682;28;20037;-68
2021/05/14 20:06:45;;;;;;;27.92;16.85;;;;;;;;;;10247278;28;20742;-67
2021/05/14 20:11:42;;;;;;;24.90;15.57;;;;;;;;;;10257412;28;20052;-67
2021/05/14 20:16:39;;;;;;;24.42;16.23;;;;;;;;;;10245329;28;20049;-67
2021/05/14 20:21:35;;;;;;;24.58;16.35;;;;;;;;;;10252397;28;20048;-67
2021/05/14 20:26:32;;;;;;;28.83;18.83;;;;;;;;;;10253861;28;20041;-68
2021/05/14 20:31:30;;;;;;;30.08;18.25;;;;;;;;;;10257254;28;20160;-68
2021/05/14 20:36:32;;;;;;;27.23;16.80;;;;;;;;;;10252827;28;20139;-66
2021/05/14 20:41:29;;;;;;;30.40;18.65;;;;;;;;;;10244222;28;20041;-67
2021/05/14 20:46:26;;;;;;;21.50;15.80;;;;;;;;;;10257112;28;20041;-67
2021/05/14 20:51:24;;;;;;;27.30;18.05;;;;;;;;;;10243276;28;20045;-67
2021/05/14 20:56:21;;;;;;;24.98;16.55;;;;;;;;;;10251817;28;20061;-68
2021/05/14 21:01:17;;;;;;;30.90;18.05;;;;;;;;;;10244066;28;20072;-68
2021/05/14 21:06:13;;;;;;;27.85;17.77;;;;;;;;;;10240434;28;20684;-68
2021/05/14 21:11:10;;;;;;;26.08;17.88;;;;;;;;;;10250203;28;20156;-68
2021/05/14 21:16:08;;;;;;;22.92;16.38;;;;;;;;;;10240681;28;20498;-68
2021/05/14 21:21:05;;;;;;;28.23;15.55;;;;;;;;;;10233906;28;20083;-68
2021/05/14 21:26:02;;;;;;;28.08;17.40;;;;;;;;;;10249183;28;20045;-70
2021/05/14 21:30:59;;;;;;;30.33;18.42;;;;;;;;;;10251027;28;20076;-69
2021/05/14 21:35:55;;;;;;;27.77;17.25;;;;;;;;;;10245296;28;20148;-67
2021/05/14 21:40:50;;;;;;;29.53;17.10;;;;;;;;;;10243315;28;20511;-67
2021/05/14 21:45:46;;;;;;;25.67;17.42;;;;;;;;;;10258267;28;20541;-67
2021/05/14 21:50:42;;;;;;;23.50;15.82;;;;;;;;;;10255351;28;20510;-71
2021/05/14 21:55:37;;;;;;;28.48;16.95;;;;;;;;;;10241582;28;20084;-67
2021/05/14 22:00:33;;;;;;;27.65;18.20;;;;;;;;;;10232700;28;20673;-66
2021/05/14 22:05:28;;;;;;;26.33;15.65;;;;;;;;;;10242851;28;20487;-67
2021/05/14 22:10:24;;;;;;;31.33;19.35;;;;;;;;;;10250617;28;20052;-68
2021/05/14 22:15:19;;;;;;;28.65;16.55;;;;;;;;;;10249162;28;20037;-68
2021/05/14 22:20:14;;;;;;;31.23;18.58;;;;;;;;;;10253171;28;20106;-68
2021/05/14 22:25:10;;;;;;;28.42;18.30;;;;;;;;;;10260689;28;20048;-68
2021/05/14 22:30:05;;;;;;;28.10;17.60;;;;;;;;;;10252181;28;20087;-68
2021/05/14 22:35:01;;;;;;;31.00;17.65;;;;;;;;;;10255748;28;20478;-69
2021/05/14 22:39:56;;;;;;;27.98;17.58;;;;;;;;;;10260257;28;20044;-69
2021/05/14 22:44:51;;;;;;;28.48;18.92;;;;;;;;;;10255700;28;20045;-69
2021/05/14 22:49:47;;;;;;;32.53;18.42;;;;;;;;;;10258650;28;20113;-67
2021/05/14 22:54:42;;;;;;;28.27;17.42;;;;;;;;;;10260781;28;20048;-67
2021/05/14 22:59:37;;;;;;;30.02;19.52;;;;;;;;;;10254907;28;20037;-67
2021/05/14 23:04:34;;;;;;;28.40;15.67;;;;;;;;;;10258921;28;20033;-66
2021/05/14 23:09:29;;;;;;;31.88;17.52;;;;;;;;;;10254439;28;20476;-66
2021/05/14 23:14:24;;;;;;;35.13;20.02;;;;;;;;;;10258768;28;20495;-67
2021/05/14 23:19:20;;;;;;;30.23;19.48;;;;;;;;;;10250014;28;20522;-65
2021/05/14 23:24:15;;;;;;;34.25;18.35;;;;;;;;;;10267443;28;20694;-68
2021/05/14 23:29:10;;;;;;;26.60;18.23;;;;;;;;;;10263269;28;20044;-68
2021/05/14 23:34:06;;;;;;;33.55;19.40;;;;;;;;;;10263666;28;20051;-68
2021/05/14 23:39:02;;;;;;;29.08;18.65;;;;;;;;;;10260303;28;20033;-68
2021/05/14 23:43:57;;;;;;;31.30;19.13;;;;;;;;;;10252215;28;20041;-66
2021/05/14 23:48:52;;;;;;;32.50;18.60;;;;;;;;;;10251123;28;21176;-65
2021/05/14 23:53:48;;;;;;;29.00;19.20;;;;;;;;;;10247866;28;20080;-68
2021/05/14 23:58:43;;;;;;;28.63;18.52;;;;;;;;;;10254371;28;20052;-68
